createdAt,value
2023-02-16T00:02:11.541Z,0.50
2023-02-16T00:04:39.325Z,0.50
2023-02-16T00:07:07.085Z,0.50
2023-02-16T00:09:36.160Z,0.30
2023-02-16T00:12:21.788Z,0.40
2023-02-16T00:14:49.582Z,0.40
2023-02-16T00:17:17.374Z,0.20
2023-02-16T00:19:45.203Z,0.30
2023-02-16T00:22:13.014Z,0.30
2023-02-16T00:24:42.231Z,0.30
2023-02-16T00:27:14.334Z,0.40
2023-02-16T00:29:44.781Z,0.20
2023-02-16T00:32:14.116Z,0.20
2023-02-16T00:34:42.884Z,0.30
2023-02-16T00:37:12.517Z,0.20
2023-02-16T00:39:43.440Z,0.10
2023-02-16T00:42:15.161Z,0.10
2023-02-16T00:44:44.940Z,0.20
2023-02-16T00:47:20.355Z,0.20
2023-02-16T00:49:49.376Z,0.10
2023-02-16T00:52:30.652Z,0.20
2023-02-16T00:55:01.181Z,0.10
2023-02-16T00:57:32.102Z,0.10
2023-02-16T01:00:06.294Z,0.20
2023-02-16T01:02:34.096Z,0.20
2023-02-16T01:05:01.867Z,0.20
2023-02-16T01:07:47.258Z,0.20
2023-02-16T01:10:35.988Z,0.20
2023-02-16T01:13:04.077Z,0.10
2023-02-16T01:15:32.035Z,0.10
2023-02-16T01:17:59.819Z,0.20
2023-02-16T01:20:29.304Z,0.00
2023-02-16T01:22:57.443Z,0.00
2023-02-16T01:25:26.574Z,0.00
2023-02-16T01:27:54.416Z,0.00
2023-02-16T01:30:23.812Z,0.00
2023-02-16T01:32:52.283Z,-0.10
2023-02-16T01:35:20.884Z,0.00
2023-02-16T01:37:48.811Z,-0.10
2023-02-16T01:40:27.656Z,-0.10
2023-02-16T01:42:59.672Z,-0.30
2023-02-16T01:45:33.801Z,-0.30
2023-02-16T01:48:06.945Z,-0.40
2023-02-16T01:50:45.644Z,-0.50
2023-02-16T01:53:20.911Z,-0.70
2023-02-16T01:55:54.575Z,-0.70
2023-02-16T01:58:36.561Z,-0.60
2023-02-16T02:01:37.761Z,-0.80
2023-02-16T02:04:43.174Z,-0.80
2023-02-16T02:07:16.213Z,-0.70
2023-02-16T02:09:50.979Z,-0.70
2023-02-16T02:12:26.638Z,-0.60
2023-02-16T02:14:56.256Z,-0.50
2023-02-16T02:17:25.623Z,-0.40
2023-02-16T02:20:03.115Z,-0.60
2023-02-16T02:23:18.181Z,-0.70
2023-02-16T02:26:19.379Z,-0.60
2023-02-16T02:28:58.872Z,-0.50
2023-02-16T02:31:36.951Z,-0.70
2023-02-16T02:34:18.067Z,-0.60
2023-02-16T02:36:52.306Z,-0.50
2023-02-16T02:39:28.544Z,-0.60
2023-02-16T02:42:07.165Z,-0.60
2023-02-16T02:44:41.219Z,-0.50
2023-02-16T02:47:09.465Z,-0.70
2023-02-16T02:49:37.221Z,-0.60
2023-02-16T02:52:05.518Z,-0.70
2023-02-16T02:54:54.948Z,-0.60
2023-02-16T02:57:45.002Z,-0.60
2023-02-16T03:00:51.264Z,-0.60
2023-02-16T03:03:23.929Z,-0.70
2023-02-16T03:05:56.732Z,-0.70
2023-02-16T03:08:28.466Z,-0.70
2023-02-16T03:11:18.328Z,-0.70
2023-02-16T03:13:49.476Z,-0.80
2023-02-16T03:16:24.091Z,-0.90
2023-02-16T03:19:10.537Z,-0.80
2023-02-16T03:21:56.434Z,-0.80
2023-02-16T03:24:48.767Z,-0.80
2023-02-16T03:27:38.879Z,-0.80
2023-02-16T03:30:08.872Z,-0.90
2023-02-16T03:32:38.496Z,-0.80
2023-02-16T03:35:07.202Z,-0.80
2023-02-16T03:37:35.232Z,-0.70
2023-02-16T03:40:20.423Z,-0.70
2023-02-16T03:42:52.272Z,-0.70
2023-02-16T03:45:21.614Z,-0.70
2023-02-16T03:47:50.832Z,-0.70
2023-02-16T03:50:18.781Z,-0.80
2023-02-16T03:52:46.618Z,-0.80
2023-02-16T03:55:14.435Z,-0.90
2023-02-16T03:57:42.224Z,-0.90
2023-02-16T04:00:10.994Z,-0.80
2023-02-16T04:02:38.848Z,-0.80
2023-02-16T04:05:08.480Z,-0.90
2023-02-16T04:07:36.636Z,-0.90
2023-02-16T04:10:04.568Z,-0.90
2023-02-16T04:12:37.351Z,-1.10
2023-02-16T04:15:07.117Z,-1.00
2023-02-16T04:17:34.969Z,-1.10
2023-02-16T04:20:02.787Z,-1.20
2023-02-16T04:22:31.920Z,-1.30
2023-02-16T04:24:59.699Z,-1.10
2023-02-16T04:27:27.590Z,-1.10
2023-02-16T04:29:55.406Z,-1.10
2023-02-16T04:32:23.325Z,-1.20
2023-02-16T04:34:51.182Z,-1.20
2023-02-16T04:37:19.005Z,-1.20
2023-02-16T04:39:48.234Z,-1.20
2023-02-16T04:42:16.155Z,-1.30
2023-02-16T04:44:43.905Z,-1.20
2023-02-16T04:47:11.714Z,-1.20
2023-02-16T04:49:39.505Z,-1.20
2023-02-16T04:52:07.685Z,-1.20
2023-02-16T04:54:35.592Z,-1.20
2023-02-16T04:57:05.055Z,-1.20
2023-02-16T04:59:32.887Z,-1.20
2023-02-16T05:02:00.687Z,-1.20
2023-02-16T05:04:28.540Z,-1.20
2023-02-16T05:06:56.410Z,-1.10
2023-02-16T05:09:24.240Z,-1.10
2023-02-16T05:12:09.752Z,-1.20
2023-02-16T05:14:45.586Z,-1.20
2023-02-16T05:17:15.966Z,-1.30
2023-02-16T05:19:45.206Z,-1.20
2023-02-16T05:22:13.341Z,-1.20
2023-02-16T05:24:41.799Z,-1.20
2023-02-16T05:27:14.892Z,-1.30
2023-02-16T05:29:44.084Z,-1.30
2023-02-16T05:32:12.233Z,-1.40
2023-02-16T05:34:40.095Z,-1.40
2023-02-16T05:37:08.324Z,-1.30
2023-02-16T05:39:36.105Z,-1.20
2023-02-16T05:42:04.102Z,-1.20
2023-02-16T05:44:32.098Z,-1.30
2023-02-16T05:47:01.349Z,-1.20
2023-02-16T05:49:29.226Z,-1.20
2023-02-16T05:51:57.203Z,-1.30
2023-02-16T05:54:25.455Z,-1.30
2023-02-16T05:56:53.851Z,-1.30
2023-02-16T05:59:21.827Z,-1.30
2023-02-16T06:01:52.169Z,-1.40
2023-02-16T06:04:22.576Z,-1.40
2023-02-16T06:06:50.766Z,-1.50
2023-02-16T06:09:19.235Z,-1.40
2023-02-16T06:11:48.543Z,-1.40
2023-02-16T06:14:18.539Z,-1.40
2023-02-16T06:16:48.433Z,-1.40
2023-02-16T06:19:17.434Z,-1.40
2023-02-16T06:21:47.079Z,-1.30
2023-02-16T06:24:15.743Z,-1.40
2023-02-16T06:26:43.566Z,-1.40
2023-02-16T06:29:11.982Z,-1.20
2023-02-16T06:31:40.197Z,-1.20
2023-02-16T06:34:08.182Z,-1.30
2023-02-16T06:36:36.136Z,-1.20
2023-02-16T06:39:05.333Z,-1.30
2023-02-16T06:41:35.625Z,-1.30
2023-02-16T06:44:05.636Z,-1.20
2023-02-16T06:46:33.819Z,-1.20
2023-02-16T06:49:01.838Z,-1.00
2023-02-16T06:51:29.812Z,-0.90
2023-02-16T06:53:57.869Z,-0.80
2023-02-16T06:56:27.092Z,-0.80
2023-02-16T06:58:54.861Z,-0.60
2023-02-16T07:01:25.579Z,-0.60
2023-02-16T07:03:54.387Z,-0.50
2023-02-16T07:06:24.082Z,-0.60
2023-02-16T07:08:52.485Z,-0.50
2023-02-16T07:11:20.824Z,-0.50
2023-02-16T07:13:50.065Z,-0.40
2023-02-16T07:16:17.942Z,-0.30
2023-02-16T07:18:46.609Z,-0.30
2023-02-16T07:21:15.189Z,-0.20
2023-02-16T07:23:44.162Z,-0.10
2023-02-16T07:26:12.675Z,0.00
2023-02-16T07:28:40.494Z,0.00
2023-02-16T07:31:11.964Z,0.00
2023-02-16T07:33:40.406Z,0.10
2023-02-16T07:36:10.069Z,0.20
2023-02-16T07:38:38.244Z,0.40
2023-02-16T07:41:09.304Z,0.50
2023-02-16T07:43:38.238Z,0.60
2023-02-16T07:46:06.540Z,0.80
2023-02-16T07:48:36.104Z,0.80
2023-02-16T07:51:04.473Z,0.90
2023-02-16T07:53:32.735Z,1.00
2023-02-16T07:56:00.668Z,1.00
2023-02-16T07:58:28.547Z,0.90
2023-02-16T08:00:57.397Z,1.00
2023-02-16T08:03:25.379Z,1.10
2023-02-16T08:05:54.659Z,1.30
2023-02-16T08:08:22.498Z,1.30
2023-02-16T08:10:50.264Z,1.40
2023-02-16T08:13:18.033Z,1.50
2023-02-16T08:15:46.173Z,1.60
2023-02-16T08:18:14.135Z,1.80
2023-02-16T08:21:03.166Z,1.90
2023-02-16T08:23:31.605Z,2.00
2023-02-16T08:25:59.720Z,2.10
2023-02-16T08:28:28.890Z,2.30
2023-02-16T08:30:56.990Z,2.40
2023-02-16T08:33:25.009Z,2.50
2023-02-16T08:35:53.097Z,2.60
2023-02-16T08:38:20.972Z,2.80
2023-02-16T08:40:50.825Z,3.00
2023-02-16T08:43:18.872Z,3.20
2023-02-16T08:45:47.779Z,3.30
2023-02-16T08:48:16.449Z,3.50
2023-02-16T08:50:46.916Z,3.60
2023-02-16T08:53:15.338Z,3.80
2023-02-16T08:55:43.131Z,3.90
2023-02-16T08:58:12.243Z,4.00
2023-02-16T09:00:41.296Z,4.10
2023-02-16T09:03:09.081Z,4.20
2023-02-16T09:05:36.872Z,4.20
2023-02-16T09:08:05.010Z,4.30
2023-02-16T09:10:32.983Z,4.40
2023-02-16T09:13:00.739Z,4.40
2023-02-16T09:15:30.061Z,4.40
2023-02-16T09:17:57.905Z,4.50
2023-02-16T09:20:27.273Z,4.50
2023-02-16T09:22:55.124Z,4.60
2023-02-16T09:25:24.488Z,4.70
2023-02-16T09:27:53.102Z,4.80
2023-02-16T09:30:20.996Z,5.00
2023-02-16T09:32:50.777Z,5.10
2023-02-16T09:35:18.779Z,5.30
2023-02-16T09:37:46.557Z,5.50
2023-02-16T09:40:15.163Z,5.80
2023-02-16T09:42:56.911Z,6.00
2023-02-16T09:45:27.297Z,6.30
2023-02-16T09:47:59.244Z,6.50
2023-02-16T09:50:53.935Z,6.70
2023-02-16T09:53:25.280Z,6.80
2023-02-16T09:55:59.540Z,7.00
2023-02-16T09:58:34.282Z,7.20
2023-02-16T10:01:08.513Z,7.40
2023-02-16T10:03:53.724Z,7.50
2023-02-16T10:06:49.367Z,7.70
2023-02-16T10:09:19.554Z,7.90
2023-02-16T10:11:54.332Z,8.20
2023-02-16T10:14:31.693Z,8.30
2023-02-16T10:17:09.018Z,8.40
2023-02-16T10:19:42.129Z,8.50
2023-02-16T10:22:17.335Z,8.70
2023-02-16T10:24:53.413Z,8.80
2023-02-16T10:27:22.754Z,8.90
2023-02-16T10:29:50.600Z,9.00
2023-02-16T10:32:29.028Z,9.00
2023-02-16T10:35:07.237Z,9.00
2023-02-16T10:37:53.518Z,9.20
2023-02-16T10:40:32.705Z,9.40
2023-02-16T10:43:07.973Z,9.60
2023-02-16T10:45:43.214Z,9.70
2023-02-16T10:48:11.517Z,9.70
2023-02-16T10:50:43.595Z,9.70
2023-02-16T10:53:16.782Z,9.80
2023-02-16T10:55:44.576Z,9.80
2023-02-16T10:58:21.753Z,9.80
2023-02-16T11:00:55.517Z,9.70
2023-02-16T11:03:26.369Z,9.80
2023-02-16T11:05:55.980Z,9.90
2023-02-16T11:08:25.626Z,9.90
2023-02-16T11:10:54.676Z,10.00
2023-02-16T11:13:28.712Z,10.00
2023-02-16T11:15:58.822Z,10.10
2023-02-16T11:18:37.722Z,10.00
2023-02-16T11:21:08.629Z,10.10
2023-02-16T11:23:38.171Z,10.10
2023-02-16T11:26:08.790Z,10.00
2023-02-16T11:28:38.793Z,10.00
2023-02-16T11:31:14.346Z,10.00
2023-02-16T11:33:44.385Z,10.20
2023-02-16T11:36:32.396Z,10.40
2023-02-16T11:39:03.267Z,10.40
2023-02-16T11:41:33.412Z,10.50
2023-02-16T11:44:02.727Z,10.50
2023-02-16T11:46:40.497Z,10.60
2023-02-16T11:49:30.857Z,10.80
2023-02-16T11:52:01.189Z,10.70
2023-02-16T11:54:29.013Z,10.70
2023-02-16T11:57:05.226Z,10.80
2023-02-16T11:59:37.136Z,10.90
2023-02-16T12:02:50.568Z,10.90
2023-02-16T12:05:37.730Z,11.10
2023-02-16T12:08:22.163Z,11.20
2023-02-16T12:11:07.296Z,11.20
2023-02-16T12:13:42.912Z,11.30
2023-02-16T12:16:23.714Z,11.30
2023-02-16T12:19:03.792Z,11.30
2023-02-16T12:21:42.178Z,11.30
2023-02-16T12:24:28.569Z,11.20
2023-02-16T12:27:00.027Z,11.20
2023-02-16T12:29:44.905Z,11.20
2023-02-16T12:32:25.653Z,11.30
2023-02-16T12:35:09.629Z,11.30
2023-02-16T12:37:45.548Z,11.50
2023-02-16T12:40:25.884Z,11.50
2023-02-16T12:43:04.664Z,11.70
2023-02-16T12:45:37.397Z,11.80
2023-02-16T12:48:20.898Z,11.80
2023-02-16T12:50:50.138Z,11.80
2023-02-16T12:53:26.957Z,11.90
2023-02-16T12:56:00.617Z,11.90
2023-02-16T12:58:33.058Z,11.90
2023-02-16T13:01:04.143Z,12.00
2023-02-16T13:03:39.111Z,12.00
2023-02-16T13:06:19.385Z,12.10
2023-02-16T13:08:52.368Z,12.00
2023-02-16T13:11:28.325Z,12.00
2023-02-16T13:14:02.399Z,12.10
2023-02-16T13:16:40.208Z,12.20
2023-02-16T13:19:13.621Z,12.20
2023-02-16T13:22:12.676Z,12.20
2023-02-16T13:24:50.975Z,12.30
2023-02-16T13:27:33.197Z,12.30
2023-02-16T13:30:37.988Z,12.30
2023-02-16T13:33:19.917Z,12.30
2023-02-16T13:36:09.908Z,12.30
2023-02-16T13:39:03.517Z,12.30
2023-02-16T13:41:44.247Z,12.40
2023-02-16T13:44:18.957Z,12.40
2023-02-16T13:46:50.211Z,12.40
2023-02-16T13:49:36.178Z,12.40
2023-02-16T13:52:04.683Z,12.30
2023-02-16T13:54:35.325Z,12.20
2023-02-16T13:57:04.308Z,12.10
2023-02-16T13:59:59.894Z,12.10
2023-02-16T14:02:54.449Z,12.10
2023-02-16T14:05:28.600Z,12.10
2023-02-16T14:08:14.771Z,12.10
2023-02-16T14:11:05.656Z,12.10
2023-02-16T14:13:45.359Z,12.20
2023-02-16T14:16:31.501Z,12.30
2023-02-16T14:19:02.171Z,12.20
2023-02-16T14:21:37.774Z,12.20
2023-02-16T14:24:10.997Z,12.20
2023-02-16T14:26:54.662Z,12.20
2023-02-16T14:29:25.215Z,12.20
2023-02-16T14:32:00.585Z,12.20
2023-02-16T14:34:31.435Z,12.20
2023-02-16T14:37:31.638Z,12.20
2023-02-16T14:40:20.041Z,12.20
2023-02-16T14:42:52.614Z,12.20
2023-02-16T14:45:52.535Z,12.20
2023-02-16T14:48:36.886Z,12.20
2023-02-16T14:51:28.742Z,12.10
2023-02-16T14:54:19.089Z,12.00
2023-02-16T14:56:50.742Z,12.00
2023-02-16T14:59:31.049Z,12.00
2023-02-16T15:01:59.801Z,12.00
2023-02-16T15:04:30.406Z,12.20
2023-02-16T15:07:03.046Z,12.20
2023-02-16T15:09:33.348Z,12.10
2023-02-16T15:12:23.166Z,12.30
2023-02-16T15:14:53.440Z,14.30
2023-02-16T15:17:29.792Z,14.70
2023-02-16T15:20:04.965Z,15.50
2023-02-16T15:22:33.390Z,15.20
2023-02-16T15:25:03.707Z,14.30
2023-02-16T15:27:32.962Z,14.10
2023-02-16T15:30:09.186Z,13.50
2023-02-16T15:32:37.197Z,13.30
2023-02-16T15:35:14.554Z,14.20
2023-02-16T15:37:42.434Z,14.30
2023-02-16T15:40:30.442Z,14.00
2023-02-16T15:43:07.873Z,13.10
2023-02-16T15:45:38.584Z,12.40
2023-02-16T15:48:27.810Z,12.10
2023-02-16T15:51:01.061Z,11.80
2023-02-16T15:53:38.180Z,11.50
2023-02-16T15:56:20.674Z,11.40
2023-02-16T15:58:48.662Z,11.20
2023-02-16T16:01:31.191Z,11.00
2023-02-16T16:04:00.712Z,10.90
2023-02-16T16:06:36.226Z,10.70
2023-02-16T16:09:06.091Z,10.60
2023-02-16T16:11:34.638Z,10.40
2023-02-16T16:14:04.492Z,10.30
2023-02-16T16:16:32.755Z,10.20
2023-02-16T16:19:08.993Z,10.00
2023-02-16T16:21:52.326Z,9.90
2023-02-16T16:24:34.029Z,9.80
2023-02-16T16:27:05.521Z,9.70
2023-02-16T16:29:37.101Z,9.50
2023-02-16T16:32:07.150Z,9.50
2023-02-16T16:34:37.476Z,9.30
2023-02-16T16:37:08.375Z,9.20
2023-02-16T16:39:40.377Z,9.10
2023-02-16T16:42:16.852Z,9.00
2023-02-16T16:44:53.753Z,8.80
2023-02-16T16:47:29.283Z,8.70
2023-02-16T16:49:58.822Z,8.60
2023-02-16T16:52:42.980Z,8.50
2023-02-16T16:55:23.290Z,8.40
2023-02-16T16:57:53.042Z,8.30
2023-02-16T17:00:22.779Z,8.20
2023-02-16T17:02:50.800Z,8.00
2023-02-16T17:05:19.205Z,7.90
2023-02-16T17:07:51.460Z,7.80
2023-02-16T17:10:22.060Z,7.60
2023-02-16T17:12:54.287Z,7.40
2023-02-16T17:15:44.182Z,7.40
2023-02-16T17:18:16.881Z,7.20
2023-02-16T17:20:45.168Z,7.10
2023-02-16T17:23:16.371Z,7.00
2023-02-16T17:25:44.643Z,6.90
2023-02-16T17:28:13.610Z,6.80
2023-02-16T17:30:41.965Z,6.70
2023-02-16T17:33:10.348Z,6.60
2023-02-16T17:35:39.865Z,6.60
2023-02-16T17:38:09.466Z,6.60
2023-02-16T17:40:39.329Z,6.60
2023-02-16T17:43:13.544Z,6.60
2023-02-16T17:45:41.393Z,6.50
2023-02-16T17:48:12.139Z,6.40
2023-02-16T17:50:39.916Z,6.40
2023-02-16T17:53:12.606Z,6.50
2023-02-16T17:55:41.762Z,6.50
2023-02-16T17:58:10.636Z,6.50
2023-02-16T18:00:39.199Z,6.60
2023-02-16T18:03:07.175Z,6.60
2023-02-16T18:05:35.022Z,6.60
2023-02-16T18:08:03.382Z,6.70
2023-02-16T18:10:37.554Z,6.80
2023-02-16T18:13:07.587Z,6.80
2023-02-16T18:15:35.408Z,6.90
2023-02-16T18:18:03.230Z,6.90
2023-02-16T18:20:31.068Z,7.00
2023-02-16T18:22:59.233Z,7.00
2023-02-16T18:25:27.386Z,7.00
2023-02-16T18:27:55.240Z,7.10
2023-02-16T18:30:24.856Z,7.10
2023-02-16T18:32:52.778Z,7.10
2023-02-16T18:35:21.088Z,7.10
2023-02-16T18:37:49.226Z,7.30
2023-02-16T18:40:19.419Z,7.30
2023-02-16T18:42:47.557Z,7.30
2023-02-16T18:45:15.554Z,7.40
2023-02-16T18:47:45.265Z,7.40
2023-02-16T18:50:13.402Z,7.40
2023-02-16T18:52:44.810Z,7.30
2023-02-16T18:55:13.060Z,7.30
2023-02-16T18:57:41.058Z,7.30
2023-02-16T19:00:11.376Z,7.30
2023-02-16T19:02:40.703Z,7.30
2023-02-16T19:05:10.430Z,7.30
2023-02-16T19:07:38.489Z,7.30
2023-02-16T19:10:08.280Z,7.30
2023-02-16T19:12:36.077Z,7.30
2023-02-16T19:15:04.533Z,7.20
2023-02-16T19:17:32.299Z,7.20
2023-02-16T19:20:00.061Z,7.20
2023-02-16T19:22:29.219Z,7.10
2023-02-16T19:24:58.464Z,7.10
2023-02-16T19:27:26.378Z,7.00
2023-02-16T19:29:54.187Z,7.10
2023-02-16T19:32:21.976Z,7.10
2023-02-16T19:34:49.763Z,7.10
2023-02-16T19:37:17.669Z,7.10
2023-02-16T19:39:46.844Z,7.10
2023-02-16T19:42:14.657Z,7.10
2023-02-16T19:44:42.532Z,7.00
2023-02-16T19:47:10.387Z,7.00
2023-02-16T19:49:38.281Z,7.00
2023-02-16T19:52:06.477Z,6.90
2023-02-16T19:54:35.834Z,6.90
2023-02-16T19:57:06.014Z,7.00
2023-02-16T19:59:34.993Z,6.90
2023-02-16T20:02:02.873Z,7.00
2023-02-16T20:04:30.840Z,7.00
2023-02-16T20:06:58.658Z,7.00
2023-02-16T20:09:26.477Z,6.90
2023-02-16T20:11:54.309Z,6.90
2023-02-16T20:14:23.458Z,6.90
2023-02-16T20:16:51.874Z,6.90
2023-02-16T20:19:20.062Z,6.90
2023-02-16T20:21:47.821Z,6.90
2023-02-16T20:24:17.984Z,7.00
2023-02-16T20:26:46.878Z,7.00
2023-02-16T20:29:16.068Z,7.00
2023-02-16T20:31:50.168Z,7.00
2023-02-16T20:34:18.698Z,7.10
2023-02-16T20:36:46.540Z,7.00
2023-02-16T20:39:14.357Z,7.00
2023-02-16T20:41:42.722Z,7.00
2023-02-16T20:44:10.880Z,7.10
2023-02-16T20:46:39.914Z,7.10
2023-02-16T20:49:09.643Z,7.20
2023-02-16T20:51:38.436Z,7.20
2023-02-16T20:54:06.959Z,7.20
2023-02-16T20:56:34.725Z,7.20
2023-02-16T20:59:02.506Z,7.20
2023-02-16T21:01:32.544Z,7.20
2023-02-16T21:04:01.583Z,7.30
2023-02-16T21:06:30.811Z,7.20
2023-02-16T21:08:58.628Z,7.30
2023-02-16T21:11:27.075Z,7.30
2023-02-16T21:13:55.136Z,7.20
2023-02-16T21:16:23.119Z,7.30
2023-02-16T21:18:51.233Z,7.30
2023-02-16T21:21:19.425Z,7.30
2023-02-16T21:23:51.653Z,7.30
2023-02-16T21:26:21.516Z,7.30
2023-02-16T21:28:49.663Z,7.20
2023-02-16T21:31:20.311Z,7.20
2023-02-16T21:33:48.585Z,7.20
2023-02-16T21:36:17.900Z,7.20
2023-02-16T21:38:46.119Z,7.20
2023-02-16T21:41:28.626Z,7.30
2023-02-16T21:44:01.703Z,7.20
2023-02-16T21:46:31.329Z,7.20
2023-02-16T21:48:58.932Z,7.20
2023-02-16T21:51:29.528Z,7.20
2023-02-16T21:53:57.977Z,7.30
2023-02-16T21:56:33.643Z,7.30
2023-02-16T21:59:01.920Z,7.30
2023-02-16T22:01:31.522Z,7.40
2023-02-16T22:04:01.176Z,7.40
2023-02-16T22:06:32.068Z,7.40
2023-02-16T22:09:00.223Z,7.40
2023-02-16T22:11:28.450Z,7.50
2023-02-16T22:13:58.795Z,7.60
2023-02-16T22:16:27.717Z,7.60
2023-02-16T22:18:58.171Z,7.70
2023-02-16T22:21:26.195Z,7.80
2023-02-16T22:23:53.996Z,7.90
2023-02-16T22:26:24.708Z,7.90
2023-02-16T22:28:53.075Z,7.90
2023-02-16T22:31:24.614Z,8.00
2023-02-16T22:33:57.027Z,8.00
2023-02-16T22:36:24.926Z,8.00
2023-02-16T22:38:53.421Z,8.00
2023-02-16T22:41:22.238Z,8.10
2023-02-16T22:43:53.979Z,8.10
2023-02-16T22:46:24.647Z,8.10
2023-02-16T22:48:53.259Z,8.10
2023-02-16T22:51:22.440Z,8.10
2023-02-16T22:53:50.427Z,8.20
2023-02-16T22:56:20.114Z,8.10
2023-02-16T22:58:48.144Z,8.10
2023-02-16T23:01:17.659Z,8.30
2023-02-16T23:03:49.029Z,8.40
2023-02-16T23:06:19.588Z,8.40
2023-02-16T23:08:51.773Z,8.50
2023-02-16T23:11:19.782Z,8.50
2023-02-16T23:13:47.540Z,8.50
2023-02-16T23:16:17.446Z,8.50
2023-02-16T23:18:46.152Z,8.60
2023-02-16T23:21:18.936Z,8.70
2023-02-16T23:23:47.344Z,8.80
2023-02-16T23:26:16.169Z,8.80
2023-02-16T23:28:44.812Z,8.90
2023-02-16T23:31:13.357Z,9.00
2023-02-16T23:33:41.429Z,9.00
2023-02-16T23:36:10.006Z,9.10
2023-02-16T23:38:39.417Z,9.00
2023-02-16T23:41:09.328Z,8.90
2023-02-16T23:43:38.790Z,8.90
2023-02-16T23:46:07.537Z,8.80
2023-02-16T23:48:35.618Z,8.80
2023-02-16T23:51:03.432Z,8.70
2023-02-16T23:53:31.205Z,8.80
2023-02-16T23:56:01.323Z,8.90
2023-02-16T23:58:29.767Z,8.90
